createdAt,value
2022-11-07T00:03:14.233Z,84.10
2022-11-07T00:11:23.252Z,84.30
2022-11-07T00:19:32.021Z,84.20
2022-11-07T00:27:37.836Z,82.30
2022-11-07T00:35:48.326Z,81.60
2022-11-07T00:43:54.017Z,82.30
2022-11-07T00:52:03.508Z,81.70
2022-11-07T01:00:11.051Z,81.50
2022-11-07T01:08:19.343Z,82.00
2022-11-07T01:16:25.437Z,82.60
2022-11-07T01:24:33.963Z,83.00
2022-11-07T01:32:39.673Z,83.40
2022-11-07T01:41:04.369Z,84.20
2022-11-07T01:49:15.802Z,85.10
2022-11-07T01:57:28.875Z,85.30
2022-11-07T02:05:38.253Z,86.00
2022-11-07T02:13:46.783Z,86.40
2022-11-07T02:21:59.081Z,86.20
2022-11-07T02:30:10.485Z,85.80
2022-11-07T02:38:20.541Z,86.10
2022-11-07T02:46:30.668Z,84.30
2022-11-07T02:54:36.605Z,84.50
2022-11-07T03:02:47.508Z,84.80
2022-11-07T03:10:53.115Z,83.60
2022-11-07T03:19:01.403Z,83.80
2022-11-07T03:27:07.128Z,83.70
2022-11-07T03:35:15.929Z,83.50
2022-11-07T03:43:21.609Z,83.30
2022-11-07T03:51:29.765Z,83.30
2022-11-07T03:59:35.239Z,83.10
2022-11-07T04:07:43.351Z,83.40
2022-11-07T04:16:01.683Z,83.10
2022-11-07T04:24:10.785Z,83.00
2022-11-07T04:32:16.326Z,84.30
2022-11-07T04:40:25.209Z,83.40
2022-11-07T04:48:30.993Z,83.40
2022-11-07T04:56:39.303Z,83.80
2022-11-07T05:04:44.980Z,83.80
2022-11-07T05:12:53.453Z,83.90
2022-11-07T05:20:59.612Z,83.70
2022-11-07T05:29:09.242Z,83.70
2022-11-07T05:37:16.136Z,84.40
2022-11-07T05:45:24.486Z,84.70
2022-11-07T05:53:30.839Z,84.60
2022-11-07T06:01:39.164Z,84.60
2022-11-07T06:09:44.963Z,84.70
2022-11-07T06:17:53.481Z,85.40
2022-11-07T06:25:59.199Z,85.60
2022-11-07T06:34:07.503Z,83.30
2022-11-07T06:42:13.142Z,81.70
2022-11-07T06:50:21.589Z,80.20
2022-11-07T06:58:27.216Z,80.40
2022-11-07T07:06:35.556Z,79.60
2022-11-07T07:14:41.464Z,78.40
2022-11-07T07:22:55.441Z,76.70
2022-11-07T07:31:22.556Z,74.20
2022-11-07T07:39:36.952Z,74.20
2022-11-07T07:47:46.134Z,73.00
2022-11-07T07:56:21.001Z,72.90
2022-11-07T08:04:26.630Z,71.70
2022-11-07T08:12:39.947Z,73.00
2022-11-07T08:21:25.515Z,70.80
2022-11-07T08:29:35.811Z,66.50
2022-11-07T09:13:29.662Z,43.10
2022-11-07T09:21:35.129Z,40.20
2022-11-07T09:29:43.266Z,39.40
2022-11-07T09:37:48.601Z,38.10
2022-11-07T09:46:04.361Z,36.50
2022-11-07T09:54:14.656Z,35.40
2022-11-07T10:02:24.795Z,35.20
2022-11-07T10:10:42.190Z,41.00
2022-11-07T10:19:03.353Z,52.90
2022-11-07T10:27:12.472Z,58.70
2022-11-07T10:35:27.535Z,62.00
2022-11-07T10:43:37.915Z,62.20
2022-11-07T10:51:46.782Z,64.20
2022-11-07T10:59:59.626Z,64.40
2022-11-07T11:08:19.751Z,64.90
2022-11-07T11:16:32.489Z,66.00
2022-11-07T11:24:40.694Z,65.40
2022-11-07T11:32:52.121Z,65.30
2022-11-07T11:41:09.478Z,64.30
2022-11-07T11:49:21.337Z,64.40
2022-11-07T11:57:35.813Z,64.10
2022-11-07T12:06:10.851Z,63.20
2022-11-07T12:14:51.662Z,62.00
2022-11-07T12:23:17.476Z,63.80
2022-11-07T12:31:29.297Z,62.30
2022-11-07T12:39:57.479Z,61.00
2022-11-07T12:48:21.420Z,60.30
2022-11-07T12:56:33.710Z,60.20
2022-11-07T13:04:45.896Z,60.70
2022-11-07T13:13:02.104Z,60.70
2022-11-07T13:21:10.318Z,61.10
2022-11-07T13:29:27.649Z,62.60
2022-11-07T13:37:39.484Z,63.10
2022-11-07T13:45:51.147Z,65.70
2022-11-07T13:54:14.738Z,66.30
2022-11-07T14:02:25.343Z,66.30
2022-11-07T14:10:36.907Z,66.40
2022-11-07T14:18:49.822Z,67.00
2022-11-07T14:27:07.535Z,67.40
2022-11-07T14:35:13.258Z,67.80
2022-11-07T14:43:24.275Z,68.30
2022-11-07T14:51:31.547Z,68.50
2022-11-07T14:59:41.646Z,69.10
2022-11-07T15:07:51.406Z,69.40
2022-11-07T15:16:17.140Z,69.90
2022-11-07T15:24:38.932Z,70.40
2022-11-07T15:32:47.353Z,70.60
2022-11-07T15:40:54.720Z,71.10
2022-11-07T15:49:03.215Z,71.10
2022-11-07T15:57:10.302Z,71.20
2022-11-07T16:05:19.151Z,71.50
2022-11-07T16:13:24.818Z,71.90
2022-11-07T16:21:32.821Z,72.20
2022-11-07T16:29:38.272Z,72.40
2022-11-07T16:37:46.344Z,72.60
2022-11-07T16:45:54.667Z,72.90
2022-11-07T16:54:10.378Z,73.30
2022-11-07T17:11:16.473Z,73.60
2022-11-07T17:19:24.297Z,73.50
2022-11-07T17:27:32.246Z,73.60
2022-11-07T17:35:39.424Z,74.20
2022-11-07T17:43:47.714Z,75.00
2022-11-07T17:51:54.594Z,75.20
2022-11-07T18:28:53.213Z,76.60
2022-11-07T18:37:00.647Z,76.90
2022-11-07T18:45:11.128Z,77.00
2022-11-07T18:53:16.481Z,77.00
2022-11-07T19:01:28.335Z,76.90
2022-11-07T19:09:37.003Z,77.00
2022-11-07T19:17:44.978Z,76.90
2022-11-07T19:25:50.433Z,76.60
2022-11-07T19:33:58.301Z,76.60
